createdAt,value
2023-02-06T00:00:11.180Z,9.65
2023-02-06T00:00:45.656Z,12.65
2023-02-06T00:01:18.278Z,14.07
2023-02-06T00:01:51.241Z,14.60
2023-02-06T00:02:23.967Z,11.85
2023-02-06T00:02:56.316Z,13.32
2023-02-06T00:03:29.166Z,12.90
2023-02-06T00:04:01.577Z,12.85
2023-02-06T00:04:33.820Z,15.57
2023-02-06T00:05:06.355Z,12.70
2023-02-06T00:05:38.620Z,12.73
2023-02-06T00:06:11.127Z,14.02
2023-02-06T00:06:43.808Z,12.65
2023-02-06T00:07:16.362Z,12.07
2023-02-06T00:07:48.670Z,14.50
2023-02-06T00:08:21.426Z,15.60
2023-02-06T00:08:54.062Z,14.27
2023-02-06T00:09:26.400Z,14.20
2023-02-06T00:09:58.731Z,16.50
2023-02-06T00:10:31.119Z,13.45
2023-02-06T00:11:05.116Z,14.25
2023-02-06T00:11:37.609Z,15.18
2023-02-06T00:12:10.178Z,15.05
2023-02-06T00:12:42.515Z,13.63
2023-02-06T00:13:14.812Z,13.98
2023-02-06T00:13:47.269Z,14.63
2023-02-06T00:14:19.662Z,16.30
2023-02-06T00:14:52.336Z,15.27
2023-02-06T00:15:24.815Z,14.23
2023-02-06T00:15:57.187Z,14.38
2023-02-06T00:16:31.042Z,15.45
2023-02-06T00:17:03.390Z,13.35
2023-02-06T00:17:36.806Z,14.85
2023-02-06T00:18:09.236Z,14.95
2023-02-06T00:18:41.531Z,14.15
2023-02-06T00:19:13.873Z,14.85
2023-02-06T00:19:46.388Z,17.42
2023-02-06T00:20:18.970Z,15.15
2023-02-06T00:20:51.480Z,15.40
2023-02-06T00:21:25.985Z,15.50
2023-02-06T00:21:58.307Z,14.52
2023-02-06T00:22:31.105Z,15.60
2023-02-06T00:23:03.456Z,16.98
2023-02-06T00:23:35.806Z,17.20
2023-02-06T00:24:08.102Z,15.23
2023-02-06T00:24:43.675Z,15.05
2023-02-06T00:25:16.466Z,15.48
2023-02-06T00:25:48.799Z,16.20
2023-02-06T00:26:21.236Z,17.50
2023-02-06T00:26:53.870Z,16.80
2023-02-06T00:27:26.566Z,14.48
2023-02-06T00:27:58.991Z,15.38
2023-02-06T00:28:31.271Z,19.30
2023-02-06T00:29:03.939Z,16.90
2023-02-06T00:29:36.324Z,17.92
2023-02-06T00:30:08.878Z,16.90
2023-02-06T00:30:41.307Z,15.25
2023-02-06T00:31:14.141Z,15.52
2023-02-06T00:31:46.597Z,17.27
2023-02-06T00:32:19.236Z,16.08
2023-02-06T00:32:51.709Z,16.10
2023-02-06T00:33:24.144Z,15.55
2023-02-06T00:33:56.654Z,15.25
2023-02-06T00:34:29.005Z,16.50
2023-02-06T00:35:01.569Z,16.05
2023-02-06T00:35:34.079Z,16.80
2023-02-06T00:36:06.955Z,17.48
2023-02-06T00:36:39.305Z,16.50
2023-02-06T00:37:11.709Z,16.80
2023-02-06T00:37:44.152Z,16.73
2023-02-06T00:38:16.486Z,19.05
2023-02-06T00:38:50.166Z,16.80
2023-02-06T00:39:22.511Z,15.00
2023-02-06T00:39:55.019Z,16.52
2023-02-06T00:40:27.341Z,15.30
2023-02-06T00:40:59.582Z,13.48
2023-02-06T00:41:32.035Z,14.77
2023-02-06T00:42:04.526Z,14.82
2023-02-06T00:42:36.842Z,17.48
2023-02-06T00:43:09.358Z,16.90
2023-02-06T00:43:43.754Z,16.73
2023-02-06T00:44:16.094Z,14.50
2023-02-06T00:44:48.467Z,18.23
2023-02-06T00:45:20.875Z,19.58
2023-02-06T00:45:53.997Z,18.48
2023-02-06T00:46:27.367Z,16.92
2023-02-06T00:46:59.804Z,17.73
2023-02-06T00:47:34.129Z,17.63
2023-02-06T00:48:06.505Z,23.17
2023-02-06T00:48:38.939Z,21.63
2023-02-06T00:49:11.498Z,19.20
2023-02-06T00:49:43.920Z,22.55
2023-02-06T00:50:16.724Z,21.55
2023-02-06T00:50:49.914Z,23.05
2023-02-06T00:51:22.229Z,24.25
2023-02-06T00:51:54.669Z,22.33
2023-02-06T00:52:27.756Z,19.38
2023-02-06T00:53:00.163Z,20.45
2023-02-06T00:53:32.795Z,23.50
2023-02-06T00:54:05.625Z,21.90
2023-02-06T00:54:38.024Z,21.42
2023-02-06T00:55:10.340Z,21.60
2023-02-06T00:55:42.691Z,18.17
2023-02-06T00:56:15.025Z,20.23
2023-02-06T00:56:47.834Z,18.90
2023-02-06T00:57:20.323Z,19.40
2023-02-06T00:57:52.619Z,21.00
2023-02-06T00:58:24.934Z,20.20
2023-02-06T00:58:57.337Z,19.98
2023-02-06T00:59:29.938Z,22.25
2023-02-06T01:00:05.759Z,21.75
2023-02-06T01:00:38.110Z,19.52
2023-02-06T01:01:10.421Z,21.05
2023-02-06T01:01:44.195Z,24.23
2023-02-06T01:02:16.600Z,20.40
2023-02-06T01:02:48.935Z,18.90
2023-02-06T01:03:21.294Z,21.63
2023-02-06T01:03:53.686Z,19.15
2023-02-06T01:04:26.093Z,19.02
2023-02-06T01:04:58.581Z,19.30
2023-02-06T01:05:30.955Z,20.33
2023-02-06T01:06:03.296Z,21.48
2023-02-06T01:06:35.581Z,20.15
2023-02-06T01:07:07.994Z,24.25
2023-02-06T01:07:40.979Z,20.48
2023-02-06T01:08:13.295Z,22.23
2023-02-06T01:08:46.130Z,24.00
2023-02-06T01:09:18.535Z,24.67
2023-02-06T01:09:51.311Z,23.52
2023-02-06T01:10:23.790Z,22.10
2023-02-06T01:10:56.116Z,22.60
2023-02-06T01:11:28.466Z,23.20
2023-02-06T01:12:00.809Z,20.80
2023-02-06T01:12:34.360Z,24.83
2023-02-06T01:13:06.669Z,27.13
2023-02-06T01:13:39.053Z,25.98
2023-02-06T01:14:11.549Z,26.30
2023-02-06T01:14:44.367Z,25.23
2023-02-06T01:15:17.137Z,23.40
2023-02-06T01:15:51.123Z,22.92
2023-02-06T01:16:24.820Z,23.60
2023-02-06T01:16:58.333Z,23.83
2023-02-06T01:17:31.714Z,23.63
2023-02-06T01:18:04.110Z,24.10
2023-02-06T01:18:36.711Z,23.73
2023-02-06T01:19:09.604Z,24.63
2023-02-06T01:19:41.910Z,26.05
2023-02-06T01:20:15.214Z,27.52
2023-02-06T01:20:47.583Z,25.83
2023-02-06T01:21:23.926Z,26.08
2023-02-06T01:21:56.254Z,28.42
2023-02-06T01:22:28.823Z,25.20
2023-02-06T01:23:01.177Z,24.90
2023-02-06T01:23:33.589Z,25.63
2023-02-06T01:24:06.069Z,22.15
2023-02-06T01:24:38.761Z,22.95
2023-02-06T01:25:11.127Z,26.00
2023-02-06T01:25:44.136Z,28.33
2023-02-06T01:26:17.969Z,38.08
2023-02-06T01:26:50.263Z,35.00
2023-02-06T01:27:25.740Z,34.35
2023-02-06T01:27:58.405Z,32.28
2023-02-06T01:28:30.718Z,31.33
2023-02-06T01:29:03.590Z,30.05
2023-02-06T01:29:36.363Z,36.45
2023-02-06T01:30:09.183Z,38.97
2023-02-06T01:30:41.611Z,35.88
2023-02-06T01:31:40.266Z,38.53
2023-02-06T01:32:12.934Z,37.47
2023-02-06T01:32:45.317Z,40.42
2023-02-06T01:33:20.930Z,38.33
2023-02-06T01:33:53.463Z,36.92
2023-02-06T01:34:25.841Z,37.08
2023-02-06T01:34:58.188Z,35.63
2023-02-06T01:35:30.859Z,35.88
2023-02-06T01:36:03.293Z,37.38
2023-02-06T01:36:35.647Z,38.90
2023-02-06T01:37:07.950Z,37.78
2023-02-06T01:37:40.653Z,34.53
2023-02-06T01:38:13.201Z,35.10
2023-02-06T01:38:45.967Z,34.38
2023-02-06T01:39:18.430Z,34.33
2023-02-06T01:39:50.829Z,30.80
2023-02-06T01:40:23.205Z,35.58
2023-02-06T01:40:59.954Z,31.95
2023-02-06T01:41:32.421Z,31.75
2023-02-06T01:42:05.231Z,32.88
2023-02-06T01:42:38.277Z,32.45
2023-02-06T01:43:19.727Z,28.08
2023-02-06T01:44:07.002Z,27.20
2023-02-06T01:44:39.765Z,22.75
2023-02-06T01:45:17.716Z,21.45
2023-02-06T01:45:50.383Z,24.02
2023-02-06T01:46:22.793Z,17.52
2023-02-06T01:46:56.142Z,22.92
2023-02-06T01:47:28.718Z,25.33
2023-02-06T01:48:06.281Z,21.95
2023-02-06T01:48:43.628Z,20.73
2023-02-06T01:49:20.509Z,17.77
2023-02-06T01:49:52.827Z,20.25
2023-02-06T01:50:25.220Z,20.60
2023-02-06T01:50:59.973Z,22.52
2023-02-06T01:51:32.586Z,18.92
2023-02-06T01:52:08.286Z,19.65
2023-02-06T01:52:40.888Z,19.63
2023-02-06T01:53:16.898Z,21.70
2023-02-06T01:53:51.898Z,19.42
2023-02-06T01:54:24.453Z,19.00
2023-02-06T01:55:02.949Z,20.25
2023-02-06T01:55:38.891Z,19.10
2023-02-06T01:56:11.387Z,17.88
2023-02-06T01:56:48.010Z,23.88
2023-02-06T01:57:21.128Z,21.90
2023-02-06T01:57:54.112Z,20.15
2023-02-06T01:58:28.297Z,20.45
2023-02-06T01:59:03.091Z,20.08
2023-02-06T01:59:36.155Z,19.23
2023-02-06T02:00:10.115Z,18.38
2023-02-06T02:00:45.785Z,16.55
2023-02-06T02:01:19.664Z,14.88
2023-02-06T02:01:52.024Z,18.63
2023-02-06T02:02:25.768Z,19.85
2023-02-06T02:02:59.041Z,17.83
2023-02-06T02:03:32.302Z,19.25
2023-02-06T02:04:07.377Z,17.83
2023-02-06T02:04:39.698Z,21.17
2023-02-06T02:05:12.821Z,19.60
2023-02-06T02:05:46.763Z,16.02
2023-02-06T02:06:21.218Z,20.20
2023-02-06T02:06:58.708Z,20.85
2023-02-06T02:07:36.501Z,17.98
2023-02-06T02:08:15.361Z,17.75
2023-02-06T02:08:49.116Z,17.90
2023-02-06T02:09:22.429Z,16.40
2023-02-06T02:09:54.976Z,16.48
2023-02-06T02:10:31.080Z,17.83
2023-02-06T02:11:05.093Z,17.50
2023-02-06T02:11:39.404Z,19.27
2023-02-06T02:12:12.133Z,15.48
2023-02-06T02:12:44.505Z,19.13
2023-02-06T02:13:17.779Z,17.17
2023-02-06T02:13:51.231Z,18.25
2023-02-06T02:14:24.024Z,18.08
2023-02-06T02:14:57.471Z,20.70
2023-02-06T02:15:52.901Z,19.38
2023-02-06T02:16:37.352Z,21.15
2023-02-06T02:17:13.905Z,23.65
2023-02-06T02:18:11.563Z,18.05
2023-02-06T02:18:55.906Z,21.38
2023-02-06T02:19:47.014Z,22.85
2023-02-06T02:20:39.085Z,18.75
2023-02-06T02:21:20.511Z,17.75
2023-02-06T02:22:09.330Z,21.42
2023-02-06T02:22:45.135Z,19.83
2023-02-06T02:23:20.129Z,21.30
2023-02-06T02:23:57.380Z,25.25
2023-02-06T02:24:54.745Z,24.10
2023-02-06T02:25:40.849Z,22.80
2023-02-06T02:26:36.681Z,25.77
2023-02-06T02:27:24.092Z,26.15
2023-02-06T02:28:02.945Z,28.15
2023-02-06T02:29:01.544Z,24.02
2023-02-06T02:29:47.433Z,23.08
2023-02-06T02:30:38.325Z,25.83
2023-02-06T02:31:27.460Z,20.58
2023-02-06T02:32:23.561Z,21.00
2023-02-06T02:32:59.680Z,21.40
2023-02-06T02:33:37.903Z,21.05
2023-02-06T02:34:30.075Z,18.35
2023-02-06T02:35:12.278Z,21.33
2023-02-06T02:35:50.697Z,20.27
2023-02-06T02:36:26.753Z,17.88
2023-02-06T02:37:15.699Z,22.40
2023-02-06T02:37:56.978Z,20.52
2023-02-06T02:38:29.412Z,19.02
2023-02-06T02:39:20.502Z,24.13
2023-02-06T02:39:59.517Z,21.95
2023-02-06T02:40:55.048Z,19.30
2023-02-06T02:41:27.536Z,20.67
2023-02-06T02:42:15.287Z,20.98
2023-02-06T02:42:57.473Z,20.75
2023-02-06T02:43:30.137Z,21.02
2023-02-06T02:44:07.451Z,21.15
2023-02-06T02:44:58.719Z,21.08
2023-02-06T02:45:43.926Z,20.73
2023-02-06T02:46:31.933Z,18.30
2023-02-06T02:47:07.336Z,19.70
2023-02-06T02:47:43.779Z,22.10
2023-02-06T02:48:19.743Z,19.77
2023-02-06T02:48:55.465Z,20.02
2023-02-06T02:49:29.478Z,21.23
2023-02-06T02:50:03.356Z,19.02
2023-02-06T02:50:36.075Z,18.50
2023-02-06T02:51:09.106Z,18.33
2023-02-06T02:51:42.184Z,16.75
2023-02-06T02:52:15.545Z,18.77
2023-02-06T02:52:48.854Z,19.90
2023-02-06T02:53:21.754Z,22.20
2023-02-06T02:53:56.686Z,16.27
2023-02-06T02:54:29.155Z,19.02
2023-02-06T02:55:01.938Z,20.73
2023-02-06T02:55:35.290Z,17.58
2023-02-06T02:56:23.385Z,17.67
2023-02-06T02:56:58.910Z,17.40
2023-02-06T02:57:32.096Z,14.57
2023-02-06T02:58:07.779Z,17.95
2023-02-06T02:58:40.609Z,18.02
2023-02-06T02:59:35.468Z,18.35
2023-02-06T03:00:08.569Z,17.67
2023-02-06T03:00:44.626Z,17.50
2023-02-06T03:01:20.494Z,17.08
2023-02-06T03:01:56.990Z,16.42
2023-02-06T03:02:32.123Z,15.52
2023-02-06T03:03:06.213Z,19.13
2023-02-06T03:03:40.836Z,17.63
2023-02-06T03:04:16.714Z,17.58
2023-02-06T03:04:56.222Z,18.40
2023-02-06T03:05:29.563Z,18.67
2023-02-06T03:06:26.838Z,12.68
2023-02-06T03:07:04.819Z,16.92
2023-02-06T03:07:58.354Z,20.27
2023-02-06T03:08:33.573Z,21.38
2023-02-06T03:09:27.121Z,18.92
2023-02-06T03:10:02.460Z,20.30
2023-02-06T03:10:35.571Z,19.02
2023-02-06T03:11:15.218Z,21.23
2023-02-06T03:11:54.523Z,19.45
2023-02-06T03:12:45.134Z,19.27
2023-02-06T03:13:28.970Z,25.38
2023-02-06T03:14:12.411Z,23.42
2023-02-06T03:14:48.661Z,23.23
2023-02-06T03:15:31.440Z,18.48
2023-02-06T03:16:11.973Z,21.80
2023-02-06T03:16:56.147Z,24.83
2023-02-06T03:17:31.810Z,18.63
2023-02-06T03:18:16.860Z,22.00
2023-02-06T03:18:54.824Z,23.00
2023-02-06T03:19:31.733Z,20.33
2023-02-06T03:20:05.308Z,21.83
2023-02-06T03:20:38.902Z,16.25
2023-02-06T03:21:13.884Z,19.42
2023-02-06T03:21:47.861Z,18.65
2023-02-06T03:22:21.472Z,18.48
2023-02-06T03:22:55.893Z,20.80
2023-02-06T03:23:31.637Z,18.05
2023-02-06T03:24:08.161Z,20.90
2023-02-06T03:24:40.572Z,19.63
2023-02-06T03:25:14.415Z,19.17
2023-02-06T03:25:48.102Z,18.25
2023-02-06T03:26:22.263Z,20.80
2023-02-06T03:26:59.396Z,20.30
2023-02-06T03:27:32.816Z,18.45
2023-02-06T03:28:07.920Z,18.25
2023-02-06T03:28:43.456Z,18.13
2023-02-06T03:29:16.517Z,18.00
2023-02-06T03:29:50.752Z,18.08
2023-02-06T03:30:24.252Z,22.17
2023-02-06T03:30:57.419Z,19.45
2023-02-06T03:31:34.397Z,16.33
2023-02-06T03:32:26.412Z,20.10
2023-02-06T03:33:01.875Z,16.88
2023-02-06T03:33:36.484Z,17.92
2023-02-06T03:34:22.796Z,18.27
2023-02-06T03:35:04.224Z,17.70
2023-02-06T03:35:37.389Z,16.92
2023-02-06T03:36:17.182Z,20.50
2023-02-06T03:36:50.109Z,19.67
2023-02-06T03:37:23.647Z,18.48
2023-02-06T03:37:55.976Z,18.08
2023-02-06T03:38:28.470Z,18.90
2023-02-06T03:39:00.936Z,19.27
2023-02-06T03:39:33.593Z,21.05
2023-02-06T03:40:07.270Z,19.65
2023-02-06T03:40:41.294Z,21.63
2023-02-06T03:41:15.302Z,18.05
2023-02-06T03:41:48.582Z,16.42
2023-02-06T03:42:22.043Z,17.85
2023-02-06T03:42:56.537Z,19.27
2023-02-06T03:43:29.774Z,20.88
2023-02-06T03:44:03.597Z,19.02
2023-02-06T03:44:38.902Z,19.50
2023-02-06T03:45:31.452Z,15.20
2023-02-06T03:46:05.442Z,21.08
2023-02-06T03:46:40.446Z,18.52
2023-02-06T03:47:14.215Z,21.02
2023-02-06T03:47:47.274Z,18.48
2023-02-06T03:48:24.645Z,18.80
2023-02-06T03:48:58.787Z,19.98
2023-02-06T03:49:32.435Z,21.17
2023-02-06T03:50:06.977Z,20.55
2023-02-06T03:50:41.782Z,17.10
2023-02-06T03:51:22.397Z,20.40
2023-02-06T03:51:58.154Z,18.90
2023-02-06T03:52:34.020Z,22.23
2023-02-06T03:53:06.825Z,20.73
2023-02-06T03:53:41.161Z,21.30
2023-02-06T03:54:14.795Z,22.45
2023-02-06T03:54:49.475Z,20.85
2023-02-06T03:55:23.597Z,19.60
2023-02-06T03:55:58.592Z,21.17
2023-02-06T03:56:43.815Z,21.75
2023-02-06T03:57:19.584Z,18.55
2023-02-06T03:57:54.176Z,21.65
2023-02-06T03:58:26.604Z,18.77
2023-02-06T03:58:58.995Z,18.58
2023-02-06T03:59:31.714Z,18.98
2023-02-06T04:00:05.129Z,19.70
2023-02-06T04:00:46.171Z,16.92
2023-02-06T04:01:18.854Z,17.77
2023-02-06T04:01:56.237Z,17.80
2023-02-06T04:02:29.093Z,20.10
2023-02-06T04:03:01.735Z,20.08
2023-02-06T04:03:34.166Z,16.55
2023-02-06T04:04:06.788Z,18.58
2023-02-06T04:04:40.637Z,18.73
2023-02-06T04:05:13.355Z,21.05
2023-02-06T04:05:45.768Z,17.60
2023-02-06T04:06:18.226Z,20.85
2023-02-06T04:06:50.592Z,20.33
2023-02-06T04:07:27.046Z,18.20
2023-02-06T04:07:59.537Z,20.90
2023-02-06T04:08:31.900Z,20.48
2023-02-06T04:09:04.297Z,20.92
2023-02-06T04:09:36.689Z,18.60
2023-02-06T04:10:09.194Z,21.90
2023-02-06T04:10:41.495Z,21.23
2023-02-06T04:11:13.879Z,21.17
2023-02-06T04:11:46.260Z,21.27
2023-02-06T04:12:18.796Z,19.58
2023-02-06T04:12:51.062Z,19.63
2023-02-06T04:13:23.484Z,18.50
2023-02-06T04:13:55.838Z,20.17
2023-02-06T04:14:28.142Z,15.20
2023-02-06T04:15:00.555Z,20.23
2023-02-06T04:15:32.996Z,18.85
2023-02-06T04:16:05.512Z,21.35
2023-02-06T04:16:38.017Z,20.48
2023-02-06T04:17:10.773Z,19.77
2023-02-06T04:17:58.965Z,20.10
2023-02-06T04:18:32.263Z,18.10
2023-02-06T04:19:04.574Z,21.13
2023-02-06T04:19:37.069Z,20.05
2023-02-06T04:20:09.730Z,20.73
2023-02-06T04:20:42.085Z,21.52
2023-02-06T04:21:14.667Z,22.33
2023-02-06T04:21:46.952Z,21.63
2023-02-06T04:22:19.265Z,20.63
2023-02-06T04:22:51.989Z,19.70
2023-02-06T04:23:24.473Z,22.10
2023-02-06T04:23:56.777Z,20.73
2023-02-06T04:24:30.932Z,19.27
2023-02-06T04:25:03.418Z,19.73
2023-02-06T04:25:36.339Z,23.40
2023-02-06T04:26:08.830Z,21.30
2023-02-06T04:26:41.331Z,21.95
2023-02-06T04:27:14.248Z,23.15
2023-02-06T04:27:46.583Z,21.40
2023-02-06T04:28:19.135Z,20.75
2023-02-06T04:28:51.701Z,24.70
2023-02-06T04:29:24.217Z,22.23
2023-02-06T04:29:56.557Z,21.13
2023-02-06T04:30:29.058Z,22.65
2023-02-06T04:31:01.820Z,25.27
2023-02-06T04:31:34.615Z,25.30
2023-02-06T04:32:07.005Z,22.70
2023-02-06T04:32:39.719Z,24.00
2023-02-06T04:33:12.087Z,25.52
2023-02-06T04:33:44.826Z,24.95
2023-02-06T04:34:17.644Z,25.08
2023-02-06T04:34:50.138Z,24.75
2023-02-06T04:35:22.524Z,24.33
2023-02-06T04:35:55.092Z,25.00
2023-02-06T04:36:27.368Z,24.95
2023-02-06T04:37:00.311Z,28.55
2023-02-06T04:37:32.819Z,21.70
2023-02-06T04:38:05.226Z,24.13
2023-02-06T04:38:37.719Z,24.50
2023-02-06T04:39:10.012Z,24.58
2023-02-06T04:39:42.490Z,23.13
2023-02-06T04:40:14.821Z,22.08
2023-02-06T04:40:47.326Z,26.08
2023-02-06T04:41:19.758Z,21.67
2023-02-06T04:41:52.199Z,25.65
2023-02-06T04:42:24.567Z,22.83
2023-02-06T04:42:57.031Z,21.83
2023-02-06T04:43:29.512Z,21.75
2023-02-06T04:44:01.860Z,23.40
2023-02-06T04:44:35.170Z,23.60
2023-02-06T04:45:07.767Z,20.77
2023-02-06T04:45:42.030Z,20.80
2023-02-06T04:46:14.392Z,22.80
2023-02-06T04:46:46.925Z,22.92
2023-02-06T04:47:19.242Z,25.17
2023-02-06T04:47:51.836Z,25.38
2023-02-06T04:48:24.223Z,22.92
2023-02-06T04:48:57.055Z,22.95
2023-02-06T04:49:29.328Z,24.23
2023-02-06T04:50:01.593Z,23.25
2023-02-06T04:50:34.899Z,21.85
2023-02-06T04:51:07.303Z,23.73
2023-02-06T04:51:40.175Z,23.52
2023-02-06T04:52:12.640Z,25.38
2023-02-06T04:52:45.175Z,24.50
2023-02-06T04:53:18.038Z,22.58
2023-02-06T04:53:50.553Z,23.95
2023-02-06T04:54:22.886Z,22.05
2023-02-06T04:54:55.292Z,22.80
2023-02-06T04:55:27.907Z,26.35
2023-02-06T04:56:07.232Z,25.17
2023-02-06T04:56:39.574Z,23.80
2023-02-06T04:57:11.945Z,22.73
2023-02-06T04:57:44.236Z,25.73
2023-02-06T04:58:16.815Z,26.58
2023-02-06T04:58:49.133Z,21.67
2023-02-06T04:59:21.604Z,21.95
2023-02-06T04:59:54.105Z,20.63
2023-02-06T05:00:26.384Z,21.30
2023-02-06T05:00:58.768Z,22.98
2023-02-06T05:01:31.173Z,22.27
2023-02-06T05:02:03.747Z,22.30
2023-02-06T05:02:39.890Z,23.15
2023-02-06T05:03:12.373Z,24.17
2023-02-06T05:03:44.833Z,28.85
2023-02-06T05:04:17.312Z,23.63
2023-02-06T05:04:49.664Z,23.95
2023-02-06T05:05:22.117Z,23.02
2023-02-06T05:05:54.692Z,22.85
2023-02-06T05:06:27.017Z,20.92
2023-02-06T05:06:59.489Z,23.83
2023-02-06T05:07:31.875Z,22.63
2023-02-06T05:08:04.234Z,20.83
2023-02-06T05:08:36.681Z,24.70
2023-02-06T05:09:10.014Z,33.83
2023-02-06T05:09:42.408Z,37.78
2023-02-06T05:10:15.404Z,27.88
2023-02-06T05:10:48.251Z,24.20
2023-02-06T05:11:20.632Z,28.30
2023-02-06T05:11:52.994Z,23.25
2023-02-06T05:12:25.484Z,24.55
2023-02-06T05:12:58.197Z,26.88
2023-02-06T05:13:31.537Z,50.88
2023-02-06T05:14:03.981Z,95.25
2023-02-06T05:14:36.479Z,80.10
2023-02-06T05:15:09.081Z,53.03
2023-02-06T05:15:41.453Z,49.22
2023-02-06T05:16:15.145Z,51.83
2023-02-06T05:16:47.900Z,36.53
2023-02-06T05:17:20.195Z,30.33
2023-02-06T05:17:52.514Z,31.08
2023-02-06T05:18:24.801Z,40.80
2023-02-06T05:18:57.398Z,44.75
2023-02-06T05:19:29.880Z,40.15
2023-02-06T05:20:02.846Z,34.60
2023-02-06T05:20:35.286Z,32.25
2023-02-06T05:21:08.084Z,55.58
2023-02-06T05:21:40.553Z,38.55
2023-02-06T05:22:13.089Z,39.92
2023-02-06T05:22:45.748Z,42.20
2023-02-06T05:23:18.118Z,38.20
2023-02-06T05:23:50.658Z,37.80
2023-02-06T05:24:23.031Z,40.08
2023-02-06T05:24:55.338Z,27.90
2023-02-06T05:25:28.113Z,31.27
2023-02-06T05:26:00.765Z,30.25
2023-02-06T05:26:33.115Z,28.33
2023-02-06T05:27:05.936Z,29.20
2023-02-06T05:27:38.144Z,27.30
2023-02-06T05:28:10.692Z,24.95
2023-02-06T05:28:43.438Z,22.38
2023-02-06T05:29:16.010Z,24.63
2023-02-06T05:29:48.473Z,23.40
2023-02-06T05:30:20.833Z,23.58
2023-02-06T05:30:53.288Z,23.92
2023-02-06T05:31:25.847Z,25.67
2023-02-06T05:31:58.521Z,23.65
2023-02-06T05:32:30.924Z,23.27
2023-02-06T05:33:03.309Z,22.30
2023-02-06T05:33:35.622Z,22.92
2023-02-06T05:34:09.623Z,23.45
2023-02-06T05:34:41.858Z,23.75
2023-02-06T05:35:14.296Z,23.73
2023-02-06T05:35:46.703Z,23.05
2023-02-06T05:36:19.475Z,22.88
2023-02-06T05:36:51.803Z,23.45
2023-02-06T05:37:24.202Z,20.58
2023-02-06T05:37:57.383Z,22.92
2023-02-06T05:38:29.793Z,21.20
2023-02-06T05:39:02.078Z,21.83
2023-02-06T05:39:34.363Z,22.02
2023-02-06T05:40:07.084Z,22.55
2023-02-06T05:40:39.340Z,28.27
2023-02-06T05:41:11.667Z,29.95
2023-02-06T05:41:44.367Z,34.53
2023-02-06T05:42:16.652Z,42.58
2023-02-06T05:42:49.114Z,36.30
2023-02-06T05:43:21.647Z,39.10
2023-02-06T05:43:54.156Z,39.97
2023-02-06T05:44:26.461Z,36.67
2023-02-06T05:44:58.969Z,39.78
2023-02-06T05:45:31.696Z,41.65
2023-02-06T05:46:04.535Z,37.58
2023-02-06T05:46:38.022Z,36.85
2023-02-06T05:47:10.367Z,37.20
2023-02-06T05:47:42.831Z,38.65
2023-02-06T05:48:15.031Z,35.20
2023-02-06T05:48:47.356Z,37.78
2023-02-06T05:49:19.774Z,29.95
2023-02-06T05:49:52.433Z,30.55
2023-02-06T05:50:24.718Z,30.55
2023-02-06T05:50:58.705Z,30.67
2023-02-06T05:51:31.080Z,28.92
2023-02-06T05:52:03.821Z,29.10
2023-02-06T05:52:36.301Z,28.85
2023-02-06T05:53:08.696Z,31.08
2023-02-06T05:53:40.979Z,35.95
2023-02-06T05:54:15.498Z,29.20
2023-02-06T05:54:47.964Z,27.73
2023-02-06T05:55:20.298Z,31.42
2023-02-06T05:55:52.684Z,30.77
2023-02-06T05:56:25.063Z,28.73
2023-02-06T05:56:58.512Z,27.95
2023-02-06T05:57:31.292Z,27.05
2023-02-06T05:58:06.066Z,26.70
2023-02-06T05:58:38.514Z,28.00
2023-02-06T05:59:10.895Z,27.92
2023-02-06T05:59:43.184Z,30.15
2023-02-06T06:00:15.832Z,29.27
2023-02-06T06:00:48.191Z,29.25
2023-02-06T06:01:20.519Z,25.77
2023-02-06T06:01:52.964Z,30.00
2023-02-06T06:02:25.473Z,29.05
2023-02-06T06:02:57.853Z,31.52
2023-02-06T06:03:33.086Z,27.85
2023-02-06T06:04:05.858Z,32.40
2023-02-06T06:04:38.219Z,32.05
2023-02-06T06:05:10.671Z,29.42
2023-02-06T06:05:43.065Z,26.10
2023-02-06T06:06:15.545Z,26.75
2023-02-06T06:06:48.217Z,26.73
2023-02-06T06:07:20.703Z,27.40
2023-02-06T06:07:53.124Z,36.38
2023-02-06T06:08:25.629Z,27.60
2023-02-06T06:08:58.035Z,28.27
2023-02-06T06:09:30.348Z,30.92
2023-02-06T06:10:03.107Z,27.08
2023-02-06T06:10:35.549Z,24.42
2023-02-06T06:11:08.316Z,26.35
2023-02-06T06:11:40.736Z,27.77
2023-02-06T06:12:13.049Z,26.02
2023-02-06T06:12:45.340Z,25.45
2023-02-06T06:13:17.858Z,28.23
2023-02-06T06:13:50.220Z,24.05
2023-02-06T06:14:22.941Z,27.35
2023-02-06T06:14:55.274Z,23.13
2023-02-06T06:15:27.615Z,24.23
2023-02-06T06:16:00.005Z,26.33
2023-02-06T06:16:32.383Z,27.23
2023-02-06T06:17:04.673Z,26.40
2023-02-06T06:17:37.188Z,25.77
2023-02-06T06:18:09.571Z,25.50
2023-02-06T06:18:41.967Z,28.05
2023-02-06T06:19:14.364Z,27.40
2023-02-06T06:19:46.668Z,26.73
2023-02-06T06:20:19.195Z,28.77
2023-02-06T06:20:52.565Z,29.58
2023-02-06T06:21:24.960Z,29.85
2023-02-06T06:21:58.324Z,29.55
2023-02-06T06:22:30.855Z,27.92
2023-02-06T06:23:03.175Z,27.70
2023-02-06T06:23:35.509Z,34.58
2023-02-06T06:24:07.901Z,36.05
2023-02-06T06:24:40.272Z,31.60
2023-02-06T06:25:13.061Z,32.03
2023-02-06T06:25:48.597Z,34.08
2023-02-06T06:26:20.949Z,34.20
2023-02-06T06:26:53.489Z,35.38
2023-02-06T06:27:25.975Z,37.20
2023-02-06T06:27:58.284Z,31.15
2023-02-06T06:28:30.656Z,35.10
2023-02-06T06:29:03.581Z,38.95
2023-02-06T06:29:36.346Z,36.47
2023-02-06T06:30:09.136Z,41.78
2023-02-06T06:30:41.911Z,39.08
2023-02-06T06:31:15.465Z,38.58
2023-02-06T06:31:48.033Z,45.22
2023-02-06T06:32:20.425Z,39.10
2023-02-06T06:32:53.333Z,43.22
2023-02-06T06:33:25.885Z,43.58
2023-02-06T06:33:58.248Z,47.22
2023-02-06T06:34:30.666Z,43.35
2023-02-06T06:35:03.311Z,41.63
2023-02-06T06:35:35.858Z,44.45
2023-02-06T06:36:09.547Z,39.63
2023-02-06T06:36:42.227Z,39.92
2023-02-06T06:37:14.570Z,42.28
2023-02-06T06:37:47.001Z,43.95
2023-02-06T06:38:19.294Z,40.42
2023-02-06T06:38:51.786Z,43.30
2023-02-06T06:39:24.127Z,47.47
2023-02-06T06:39:56.424Z,47.72
2023-02-06T06:40:28.765Z,55.15
2023-02-06T06:41:01.247Z,55.78
2023-02-06T06:41:33.662Z,61.53
2023-02-06T06:42:06.233Z,68.43
2023-02-06T06:42:38.689Z,68.50
2023-02-06T06:43:11.206Z,70.97
2023-02-06T06:43:43.527Z,61.50
2023-02-06T06:44:15.848Z,58.13
2023-02-06T06:44:48.127Z,52.33
2023-02-06T06:45:20.569Z,51.95
2023-02-06T06:45:53.002Z,48.03
2023-02-06T06:46:25.402Z,50.20
2023-02-06T06:46:57.789Z,43.88
2023-02-06T06:47:30.220Z,40.63
2023-02-06T06:48:02.709Z,38.28
2023-02-06T06:48:36.712Z,37.00
2023-02-06T06:49:09.196Z,36.38
2023-02-06T06:49:41.516Z,37.72
2023-02-06T06:50:14.055Z,35.53
2023-02-06T06:50:46.769Z,33.58
2023-02-06T06:51:19.104Z,31.55
2023-02-06T06:51:51.437Z,35.08
2023-02-06T06:52:25.525Z,34.90
2023-02-06T06:52:58.150Z,30.90
2023-02-06T06:53:30.537Z,31.85
2023-02-06T06:54:03.054Z,34.72
2023-02-06T06:54:35.372Z,36.45
2023-02-06T06:55:07.820Z,35.42
2023-02-06T06:55:40.175Z,34.55
2023-02-06T06:56:13.555Z,35.53
2023-02-06T06:56:46.034Z,32.75
2023-02-06T06:57:18.333Z,36.20
2023-02-06T06:57:50.629Z,36.33
2023-02-06T06:58:23.101Z,29.92
2023-02-06T06:58:55.831Z,34.28
2023-02-06T06:59:28.312Z,34.38
2023-02-06T07:00:00.794Z,31.27
2023-02-06T07:00:33.515Z,33.60
2023-02-06T07:01:06.218Z,32.78
2023-02-06T07:01:38.660Z,34.67
2023-02-06T07:02:11.554Z,32.85
2023-02-06T07:02:43.926Z,32.05
2023-02-06T07:03:16.360Z,31.73
2023-02-06T07:03:48.797Z,32.58
2023-02-06T07:04:21.501Z,32.38
2023-02-06T07:04:54.246Z,28.92
2023-02-06T07:05:26.630Z,30.05
2023-02-06T07:05:58.949Z,34.60
2023-02-06T07:06:31.317Z,29.75
2023-02-06T07:07:03.934Z,26.38
2023-02-06T07:07:36.780Z,30.70
2023-02-06T07:08:09.190Z,28.67
2023-02-06T07:08:42.281Z,28.45
2023-02-06T07:09:14.866Z,31.80
2023-02-06T07:09:47.284Z,27.42
2023-02-06T07:10:19.803Z,34.17
2023-02-06T07:10:52.211Z,26.90
2023-02-06T07:11:26.439Z,29.90
2023-02-06T07:11:58.932Z,28.73
2023-02-06T07:12:31.455Z,28.75
2023-02-06T07:13:04.029Z,29.75
2023-02-06T07:13:36.843Z,42.08
2023-02-06T07:14:09.157Z,39.22
2023-02-06T07:14:41.522Z,36.88
2023-02-06T07:15:14.299Z,33.38
2023-02-06T07:15:46.693Z,39.00
2023-02-06T07:16:19.115Z,41.10
2023-02-06T07:16:51.514Z,41.75
2023-02-06T07:17:23.904Z,44.75
2023-02-06T07:17:56.557Z,43.42
2023-02-06T07:18:28.971Z,41.15
2023-02-06T07:19:01.293Z,39.53
2023-02-06T07:19:33.839Z,39.67